Time;durP1;ratioP1;P1;durP2;ratioP2;P2;SDS_P1;SDS_P2;PMS_P1;PMS_P2;Temp;Humidity;BMP_temperature;BMP_pressure;BME280_temperature;BME280_humidity;BME280_pressure;Samples;Min_cycle;Max_cycle;Signal;HPM_P1;HPM_P2
2021/09/16 00:02:07;;;;;;;13.32;8.48;;;;;;;9.96;100.00;93381.34;1806220;77;21049;-91
2021/09/16 00:04:35;;;;;;;13.53;8.80;;;;;;;9.92;100.00;93380.58;1779239;79;21046;-92
2021/09/16 00:07:03;;;;;;;10.63;8.65;;;;;;;9.86;100.00;93388.95;1808765;77;20954;-89
2021/09/16 00:09:30;;;;;;;11.55;8.98;;;;;;;9.82;100.00;93390.90;1809644;77;21031;-89
2021/09/16 00:11:58;;;;;;;10.05;7.78;;;;;;;9.76;100.00;93388.38;1786237;77;20993;-92
2021/09/16 00:14:25;;;;;;;9.48;8.48;;;;;;;9.71;100.00;93393.04;1785953;77;21079;-87
2021/09/16 00:16:53;;;;;;;9.83;7.90;;;;;;;9.66;100.00;93391.28;1785579;78;21047;-90
2021/09/16 00:19:20;;;;;;;13.65;9.60;;;;;;;9.62;100.00;93386.44;1804542;77;21059;-89
2021/09/16 00:21:47;;;;;;;8.95;8.05;;;;;;;9.58;100.00;93387.03;1775781;78;21033;-90
2021/09/16 00:24:15;;;;;;;8.83;7.92;;;;;;;9.55;100.00;93383.73;1762976;79;21054;-90
2021/09/16 00:26:43;;;;;;;9.75;8.73;;;;;;;9.52;100.00;93383.17;1755790;79;21122;-91
2021/09/16 00:29:10;;;;;;;9.63;8.13;;;;;;;9.50;100.00;93380.83;1758399;79;21123;-91
2021/09/16 00:31:37;;;;;;;9.93;7.90;;;;;;;9.48;100.00;93381.23;1756582;79;21070;-90
2021/09/16 00:34:03;;;;;;;9.15;8.00;;;;;;;9.47;100.00;93376.94;1755418;79;21067;-90
2021/09/16 00:36:30;;;;;;;9.05;8.15;;;;;;;9.45;100.00;93384.72;1751544;80;21082;-90
2021/09/16 00:38:56;;;;;;;10.65;8.23;;;;;;;9.43;100.00;93376.17;1762298;78;21087;-90
2021/09/16 00:41:28;;;;;;;11.70;8.05;;;;;;;9.42;100.00;93376.58;1781069;78;21033;-91
2021/09/16 00:43:55;;;;;;;14.13;8.75;;;;;;;9.40;100.00;93374.81;1752157;80;21038;-88
2021/09/16 00:46:21;;;;;;;11.33;9.25;;;;;;;9.39;100.00;93374.62;1749335;80;21448;-90
2021/09/16 00:48:50;;;;;;;10.48;8.35;;;;;;;9.36;100.00;93374.81;1822540;76;20938;-90
2021/09/16 00:51:18;;;;;;;10.70;7.92;;;;;;;9.38;100.00;93377.16;1819324;76;21013;-91
2021/09/16 00:53:46;;;;;;;10.25;8.00;;;;;;;9.33;100.00;93370.19;1811094;76;21136;-89
2021/09/16 00:56:12;;;;;;;9.98;8.48;;;;;;;9.25;100.00;93375.39;1835887;76;21056;-88
2021/09/16 00:58:44;;;;;;;12.90;9.08;;;;;;;9.19;100.00;93374.25;1797963;77;21051;-89
2021/09/16 01:01:11;;;;;;;10.25;8.93;;;;;;;9.11;100.00;93372.70;1743546;79;21047;-92
2021/09/16 01:03:37;;;;;;;11.65;8.23;;;;;;;9.07;100.00;93367.27;1807903;77;21464;-90
2021/09/16 01:06:08;;;;;;;9.63;8.40;;;;;;;9.08;100.00;93376.95;1813533;77;21105;-92
2021/09/16 01:08:35;;;;;;;8.75;7.75;;;;;;;9.09;100.00;93372.30;1841845;76;21067;-92
2021/09/16 01:11:01;;;;;;;16.85;8.25;;;;;;;9.08;100.00;93367.45;1834737;76;21060;-90
2021/09/16 01:13:28;;;;;;;12.55;9.10;;;;;;;9.08;100.00;93363.97;1805626;77;21179;-90
2021/09/16 01:15:54;;;;;;;12.73;9.73;;;;;;;9.09;100.00;93365.52;1761363;79;21104;-91
2021/09/16 01:18:22;;;;;;;17.75;9.00;;;;;;;9.11;100.00;93364.56;1707659;79;21060;-90
2021/09/16 01:20:49;;;;;;;14.43;8.73;;;;;;;9.13;100.00;93361.63;1783270;77;21040;-89
2021/09/16 01:23:16;;;;;;;30.30;8.35;;;;;;;9.15;100.00;93359.33;1780491;78;21069;-90
2021/09/16 01:25:44;;;;;;;8.18;7.37;;;;;;;9.18;100.00;93361.27;1764910;79;21132;-88
2021/09/16 01:28:10;;;;;;;10.28;8.28;;;;;;;9.19;100.00;93360.09;1759647;79;21083;-90
2021/09/16 01:30:37;;;;;;;14.93;8.00;;;;;;;9.19;100.00;93352.55;1796793;76;21361;-90
2021/09/16 01:33:03;;;;;;;9.58;8.35;;;;;;;9.18;100.00;93361.27;1795795;76;21140;-90
2021/09/16 01:35:30;;;;;;;11.22;7.87;;;;;;;9.17;100.00;93360.28;1751350;79;21116;-90
2021/09/16 01:37:57;;;;;;;8.80;7.53;;;;;;;9.14;100.00;93362.41;1765563;79;21041;-92
2021/09/16 01:40:23;;;;;;;8.30;7.28;;;;;;;9.10;100.00;93358.92;1823573;76;20946;-91
2021/09/16 01:42:51;;;;;;;12.18;7.92;;;;;;;9.05;100.00;93355.25;1785788;77;21662;-90
2021/09/16 01:45:19;;;;;;;16.80;7.80;;;;;;;9.02;100.00;93353.30;1771003;79;21069;-87
2021/09/16 01:47:47;;;;;;;11.45;7.92;;;;;;;9.01;100.00;93357.95;1773135;79;21001;-90
2021/09/16 01:50:17;;;;;;;9.23;7.75;;;;;;;8.97;100.00;93355.82;1768144;77;21646;-90
2021/09/16 01:52:45;;;;;;;7.97;7.08;;;;;;;8.97;100.00;93346.33;1772918;79;21048;-92
2021/09/16 01:55:12;;;;;;;7.78;6.97;;;;;;;8.94;100.00;93351.94;1767733;77;21530;-91
2021/09/16 01:57:38;;;;;;;8.80;7.78;;;;;;;8.93;100.00;93347.67;1788302;78;21064;-90
2021/09/16 02:00:07;;;;;;;8.88;7.95;;;;;;;8.92;100.00;93343.42;1792911;77;21091;-90
2021/09/16 02:02:36;;;;;;;8.35;7.55;;;;;;;8.91;100.00;93346.50;1766042;78;21236;-90
2021/09/16 02:05:03;;;;;;;9.78;8.05;;;;;;;8.93;100.00;93356.40;1740191;80;21017;-91
2021/09/16 02:07:29;;;;;;;9.13;7.50;;;;;;;8.94;100.00;93351.94;1794666;77;21068;-90
2021/09/16 02:09:57;;;;;;;10.15;8.08;;;;;;;8.95;100.00;93356.22;1784129;78;21592;-88
2021/09/16 02:12:24;;;;;;;8.43;7.42;;;;;;;8.97;100.00;93357.17;1782577;78;21104;-90
2021/09/16 02:14:52;;;;;;;8.53;7.72;;;;;;;8.97;100.00;93353.88;1792959;77;21109;-89
2021/09/16 02:17:19;;;;;;;9.75;7.95;;;;;;;8.97;100.00;93354.46;1737727;80;21093;-90
2021/09/16 02:19:45;;;;;;;8.68;7.78;;;;;;;8.98;100.00;93364.14;1745036;78;21105;-90
2021/09/16 02:22:11;;;;;;;10.82;7.65;;;;;;;8.97;100.00;93354.46;1750912;79;21060;-90
2021/09/16 02:24:38;;;;;;;8.63;7.30;;;;;;;8.97;100.00;93350.39;1755283;79;21005;-90
2021/09/16 02:27:07;;;;;;;9.03;7.42;;;;;;;8.96;100.00;93347.50;1751791;78;21638;-88
2021/09/16 02:29:35;;;;;;;9.58;8.23;;;;;;;8.96;100.00;93352.34;1748326;79;21036;-87
2021/09/16 02:32:01;;;;;;;9.55;7.58;;;;;;;8.96;100.00;93356.98;1747124;80;21101;-90
2021/09/16 02:34:28;;;;;;;9.08;7.65;;;;;;;8.94;100.00;93356.59;1805376;76;21657;-90
2021/09/16 02:36:55;;;;;;;11.12;7.90;;;;;;;8.94;100.00;93355.23;1803890;77;21060;-89
2021/09/16 02:39:23;;;;;;;8.73;7.83;;;;;;;8.95;100.00;93347.28;1766288;79;21100;-92
2021/09/16 02:41:50;;;;;;;16.82;8.28;;;;;;;8.97;100.00;93349.04;1762235;79;21121;-91
2021/09/16 02:44:17;;;;;;;10.08;7.37;;;;;;;8.97;100.00;93345.74;1763296;79;21057;-90
2021/09/16 02:46:43;;;;;;;13.80;8.53;;;;;;;8.92;100.00;93344.78;1749467;79;21007;-90
2021/09/16 02:49:15;;;;;;;16.87;6.85;;;;;;;8.82;100.00;93350.19;1737556;81;21592;-89
2021/09/16 02:51:46;;;;;;;7.15;6.45;;;;;;;8.75;100.00;93353.66;1734126;79;21130;-90
2021/09/16 02:54:14;;;;;;;11.95;7.55;;;;;;;8.70;100.00;93351.33;1747627;80;21077;-91
2021/09/16 02:56:43;;;;;;;9.03;7.58;;;;;;;8.64;100.00;93352.27;1726924;81;21104;-92
2021/09/16 02:59:12;;;;;;;8.90;7.97;;;;;;;8.61;100.00;93346.26;1685061;82;21139;-90
2021/09/16 03:01:41;;;;;;;11.83;7.37;;;;;;;8.62;100.00;93345.70;1710970;81;21155;-91
2021/09/16 03:04:13;;;;;;;8.58;7.37;;;;;;;8.66;100.00;93347.84;1730705;80;21052;-88
2021/09/16 03:06:40;;;;;;;9.55;7.28;;;;;;;8.68;100.00;93344.92;1794247;76;21012;-91
2021/09/16 03:09:07;;;;;;;9.18;8.05;;;;;;;8.70;100.00;93348.62;1797055;77;21239;-91
2021/09/16 03:11:34;;;;;;;9.88;7.42;;;;;;;8.70;100.00;93344.55;1756383;80;21056;-89
2021/09/16 03:14:01;;;;;;;10.93;9.18;;;;;;;8.71;100.00;93351.52;1770158;78;21022;-89
2021/09/16 03:16:29;;;;;;;9.73;8.15;;;;;;;8.75;100.00;93346.29;1738637;80;21037;-89
2021/09/16 03:18:57;;;;;;;9.30;7.87;;;;;;;8.79;100.00;93346.30;1792699;76;21072;-92
2021/09/16 03:21:25;;;;;;;15.08;9.13;;;;;;;8.84;100.00;93346.49;1811654;77;21048;-89
2021/09/16 03:23:53;;;;;;;9.25;8.28;;;;;;;8.88;100.00;93349.42;1800612;79;21063;-91
2021/09/16 03:26:21;;;;;;;10.28;8.35;;;;;;;8.93;100.00;93349.03;1730916;81;21014;-89
2021/09/16 03:28:47;;;;;;;12.93;8.13;;;;;;;8.96;100.00;93344.78;1754775;80;21084;-91
2021/09/16 03:31:14;;;;;;;9.55;8.33;;;;;;;8.96;100.00;93341.48;1734876;80;21077;-90
2021/09/16 03:33:41;;;;;;;11.03;7.58;;;;;;;8.95;100.00;93340.50;1730624;80;21173;-92
2021/09/16 03:36:07;;;;;;;11.95;7.53;;;;;;;8.97;100.00;93338.97;1735731;80;21338;-89
2021/09/16 03:38:33;;;;;;;11.85;8.05;;;;;;;8.94;100.00;93343.80;1734977;80;21076;-91
2021/09/16 03:41:02;;;;;;;9.43;8.45;;;;;;;8.91;100.00;93331.03;1736879;80;21053;-91
2021/09/16 03:43:28;;;;;;;9.48;8.45;;;;;;;8.92;100.00;93328.51;1726943;81;21070;-91
2021/09/16 03:45:55;;;;;;;9.78;8.78;;;;;;;8.95;100.00;93337.23;1728820;80;21837;-89
2021/09/16 03:48:21;;;;;;;9.80;8.43;;;;;;;8.98;100.00;93335.08;1732853;81;21232;-90
2021/09/16 03:50:50;;;;;;;10.60;8.95;;;;;;;9.00;100.00;93333.36;1717110;82;21120;-91
2021/09/16 03:53:18;;;;;;;9.10;8.15;;;;;;;9.01;100.00;93338.97;1732616;80;21437;-90
2021/09/16 03:55:45;;;;;;;9.00;8.10;;;;;;;9.03;100.00;93335.30;1732655;80;21267;-90
2021/09/16 03:58:11;;;;;;;14.20;9.58;;;;;;;9.05;100.00;93338.38;1735449;80;21121;-89
2021/09/16 04:00:38;;;;;;;10.95;8.23;;;;;;;9.06;100.00;93339.92;1733215;80;21626;-92
2021/09/16 04:03:06;;;;;;;11.75;8.05;;;;;;;9.08;100.00;93342.27;1748390;80;21103;-90
2021/09/16 04:05:33;;;;;;;14.90;9.80;;;;;;;9.09;100.00;93341.10;1725689;79;21068;-90
2021/09/16 04:08:00;;;;;;;11.57;8.45;;;;;;;9.11;100.00;93340.14;1725754;79;21094;-88
2021/09/16 04:10:29;;;;;;;10.65;8.98;;;;;;;9.13;100.00;93344.59;1757410;77;21114;-90
2021/09/16 04:12:57;;;;;;;10.45;8.15;;;;;;;9.14;100.00;93342.86;1793714;77;21050;-91
2021/09/16 04:15:23;;;;;;;9.53;8.53;;;;;;;9.15;100.00;93339.56;1787770;78;21104;-90
2021/09/16 04:17:53;;;;;;;8.55;7.75;;;;;;;9.16;100.00;93341.11;1749318;80;21098;-90
2021/09/16 04:20:21;;;;;;;8.93;7.83;;;;;;;9.13;100.00;93341.29;1732170;79;21089;-88
2021/09/16 04:22:49;;;;;;;12.45;9.20;;;;;;;9.08;100.00;93347.70;1733902;80;21063;-90
2021/09/16 04:25:17;;;;;;;10.15;8.83;;;;;;;9.04;100.00;93346.34;1738868;80;21013;-91
2021/09/16 04:27:45;;;;;;;12.13;9.48;;;;;;;9.03;100.00;93342.64;1743382;79;21100;-91
2021/09/16 04:30:12;;;;;;;9.95;8.78;;;;;;;9.04;100.00;93341.50;1748132;79;21084;-90
2021/09/16 04:32:39;;;;;;;12.80;8.93;;;;;;;9.05;100.00;93349.23;1794721;78;21076;-89
2021/09/16 04:35:07;;;;;;;10.78;8.23;;;;;;;9.05;100.00;93345.75;1764087;78;21750;-90
2021/09/16 04:37:34;;;;;;;12.75;8.98;;;;;;;9.06;100.00;93343.23;1740912;80;21182;-91
2021/09/16 04:40:00;;;;;;;9.68;8.68;;;;;;;9.06;100.00;93349.42;1732459;79;21069;-89
2021/09/16 04:42:27;;;;;;;10.18;9.03;;;;;;;9.06;100.00;93345.94;1729714;80;21045;-90
2021/09/16 04:44:53;;;;;;;9.83;8.65;;;;;;;9.06;100.00;93348.65;1725275;81;21076;-90
2021/09/16 04:47:20;;;;;;;10.28;8.50;;;;;;;9.08;100.00;93347.70;1728511;81;21301;-91
2021/09/16 04:49:47;;;;;;;12.75;8.48;;;;;;;9.10;100.00;93348.06;1734162;81;21045;-91
2021/09/16 04:52:15;;;;;;;9.45;8.15;;;;;;;9.14;100.00;93352.91;1736905;80;21156;-90
2021/09/16 04:54:42;;;;;;;9.70;8.28;;;;;;;9.20;100.00;93351.38;1724911;81;21077;-89
2021/09/16 04:57:09;;;;;;;9.35;8.00;;;;;;;9.26;100.00;93352.55;1727994;81;21426;-89
2021/09/16 04:59:36;;;;;;;9.60;7.85;;;;;;;9.35;100.00;93350.80;1743926;80;22004;-89
2021/09/16 05:02:02;;;;;;;10.03;8.23;;;;;;;9.41;100.00;93354.09;1750985;80;21551;-90
2021/09/16 05:04:29;;;;;;;7.90;7.12;;;;;;;9.46;100.00;93346.91;1774523;77;21119;-90
2021/09/16 05:06:56;;;;;;;10.53;7.35;;;;;;;9.55;100.00;93353.88;1759347;79;21080;-91
2021/09/16 05:09:25;;;;;;;8.30;7.30;;;;;;;9.72;100.00;93355.80;1745707;80;21587;-91
2021/09/16 05:11:53;;;;;;;8.73;7.45;;;;;;;9.92;100.00;93351.47;1783313;79;21139;-91
2021/09/16 05:14:19;;;;;;;8.98;7.92;;;;;;;10.05;100.00;93349.13;1769312;77;21953;-90
2021/09/16 05:16:46;;;;;;;8.70;7.80;;;;;;;10.11;100.00;93350.84;1776916;78;21045;-91
2021/09/16 05:19:14;;;;;;;8.88;7.97;;;;;;;10.16;100.00;93348.50;1811410;77;21309;-90
2021/09/16 05:21:41;;;;;;;9.23;7.97;;;;;;;10.20;100.00;93351.21;1820921;77;21097;-93
2021/09/16 05:24:07;;;;;;;9.05;8.15;;;;;;;10.30;100.00;93349.05;1832195;76;21812;-91
2021/09/16 05:26:35;;;;;;;11.25;9.33;;;;;;;10.40;100.00;93358.34;1843367;76;20969;-88
2021/09/16 05:29:02;;;;;;;12.82;9.48;;;;;;;10.50;100.00;93352.67;1821737;76;21060;-91
2021/09/16 05:31:29;;;;;;;12.50;9.90;;;;;;;10.59;100.00;93353.78;1806346;77;21078;-90
2021/09/16 05:33:57;;;;;;;11.20;9.83;;;;;;;10.69;100.00;93356.27;1779065;77;21175;-91
2021/09/16 05:36:24;;;;;;;10.58;9.10;;;;;;;10.72;100.00;93347.31;1813031;77;21535;-91
2021/09/16 05:38:52;;;;;;;11.03;9.73;;;;;;;10.77;100.00;93349.61;1813518;77;21113;-87
2021/09/16 05:41:18;;;;;;;9.30;8.40;;;;;;;10.84;100.00;93344.12;1814668;77;21506;-91
2021/09/16 05:43:47;;;;;;;8.93;7.37;;;;;;;10.94;100.00;93343.30;1816190;77;21123;-91
2021/09/16 05:46:13;;;;;;;8.15;6.97;;;;;;;11.08;100.00;93336.96;1803098;77;21540;-88
2021/09/16 05:48:40;;;;;;;9.08;8.05;;;;;;;11.23;100.00;93334.91;1763665;79;21625;-90
2021/09/16 05:51:07;;;;;;;21.73;8.93;;;;;;;11.33;99.67;93338.73;1753675;80;21080;-89
2021/09/16 05:53:33;;;;;;;8.33;7.47;;;;;;;11.37;99.07;93337.52;1745100;80;21129;-88
2021/09/16 05:56:01;;;;;;;11.12;8.15;;;;;;;11.43;98.65;93343.30;1764958;78;21125;-89
2021/09/16 05:58:28;;;;;;;8.88;7.65;;;;;;;11.50;98.26;93345.19;1748412;79;21038;-91
2021/09/16 06:00:55;;;;;;;7.65;6.90;;;;;;;11.60;97.90;93339.66;1732452;80;21097;-91
2021/09/16 06:03:21;;;;;;;8.45;7.25;;;;;;;11.68;97.22;93336.27;1736464;79;21065;-88
2021/09/16 06:05:49;;;;;;;8.80;7.40;;;;;;;11.76;97.02;93335.62;1755277;78;21073;-87
2021/09/16 06:08:17;;;;;;;8.55;7.65;;;;;;;11.80;96.68;93340.44;1752621;80;21135;-89
2021/09/16 06:10:43;;;;;;;8.28;7.47;;;;;;;11.84;96.40;93333.80;1761829;79;20987;-91
2021/09/16 06:13:11;;;;;;;7.33;6.62;;;;;;;11.88;96.11;93331.84;1774220;79;21083;-90
2021/09/16 06:15:38;;;;;;;7.37;6.67;;;;;;;11.94;96.22;93332.75;1793006;78;20998;-89
2021/09/16 06:18:06;;;;;;;7.72;6.40;;;;;;;12.01;96.45;93328.59;1815875;77;21100;-90
2021/09/16 06:20:33;;;;;;;7.42;6.83;;;;;;;12.07;95.56;93326.38;1822017;77;21523;-92
2021/09/16 06:23:01;;;;;;;7.15;5.92;;;;;;;12.11;96.11;93324.95;1774571;78;21056;-90
2021/09/16 06:25:29;;;;;;;7.20;6.50;;;;;;;12.21;96.16;93326.80;1739562;80;21036;-88
2021/09/16 06:27:58;;;;;;;9.53;7.40;;;;;;;12.34;95.57;93324.32;1743931;80;21595;-89
2021/09/16 06:30:25;;;;;;;7.00;6.28;;;;;;;12.56;94.79;93324.23;1750781;80;21128;-91
2021/09/16 06:32:53;;;;;;;8.08;6.92;;;;;;;12.78;94.59;93323.93;1771262;78;21580;-88
2021/09/16 06:35:20;;;;;;;6.90;6.30;;;;;;;12.95;93.33;93322.92;1780288;78;21061;-88
2021/09/16 06:37:46;;;;;;;9.65;6.58;;;;;;;13.02;91.94;93326.91;1741346;80;21127;-90
2021/09/16 06:40:13;;;;;;;7.35;6.65;;;;;;;13.05;91.79;93323.36;1736462;79;21730;-89
2021/09/16 06:42:41;;;;;;;10.78;7.60;;;;;;;13.10;92.50;93323.48;1761965;79;20906;-91
2021/09/16 06:45:11;;;;;;;7.85;7.15;;;;;;;13.17;92.08;93322.02;1789623;77;21440;-88
2021/09/16 06:47:46;;;;;;;8.30;7.22;;;;;;;13.25;92.33;93321.34;1831603;76;21579;-87
2021/09/16 06:50:15;;;;;;;8.55;7.53;;;;;;;13.47;91.91;93317.08;1786180;77;21108;-91
2021/09/16 06:52:42;;;;;;;8.15;6.55;;;;;;;13.69;90.51;93322.95;1757777;79;21140;-88
2021/09/16 06:55:09;;;;;;;7.58;6.75;;;;;;;13.72;89.61;93318.59;1732864;80;21085;-90
2021/09/16 06:57:37;;;;;;;9.58;7.42;;;;;;;13.65;89.53;93322.22;1735974;81;21089;-88
2021/09/16 07:00:06;;;;;;;7.95;7.15;;;;;;;13.58;89.47;93319.63;1733571;80;21022;-90
2021/09/16 07:02:34;;;;;;;8.10;7.30;;;;;;;13.45;89.38;93317.30;1734540;78;21117;-89
2021/09/16 07:05:02;;;;;;;9.20;7.15;;;;;;;13.32;90.01;93315.17;1733377;81;21014;-88
2021/09/16 07:07:29;;;;;;;8.80;8.00;;;;;;;13.24;90.42;93317.04;1747614;78;21025;-90
2021/09/16 07:09:55;;;;;;;9.28;7.85;;;;;;;13.18;91.05;93315.95;1768634;78;21097;-88
2021/09/16 07:12:22;;;;;;;9.90;8.90;;;;;;;13.12;91.99;93310.17;1750922;78;21135;-90
2021/09/16 07:14:50;;;;;;;11.40;8.25;;;;;;;13.18;93.15;93315.95;1747946;79;21385;-88
2021/09/16 07:17:18;;;;;;;9.98;8.10;;;;;;;13.25;93.46;93315.87;1732339;78;21046;-89
2021/09/16 07:19:46;;;;;;;9.40;8.30;;;;;;;13.33;93.90;93308.52;1688003;81;21509;-88
2021/09/16 07:22:13;;;;;;;9.73;8.63;;;;;;;13.47;94.60;93307.52;1743529;80;21102;-90
2021/09/16 07:24:40;;;;;;;9.03;8.10;;;;;;;13.61;94.29;93309.22;1750041;80;21068;-90
2021/09/16 07:27:09;;;;;;;9.00;8.10;;;;;;;13.75;94.08;93310.94;1753288;77;21001;-91
2021/09/16 07:29:35;;;;;;;10.00;9.10;;;;;;;13.88;93.36;93307.78;1765732;78;21048;-88
2021/09/16 07:32:02;;;;;;;8.85;7.95;;;;;;;14.02;93.77;93304.00;1742438;79;21054;-92
2021/09/16 07:34:30;;;;;;;8.50;7.70;;;;;;;14.20;93.62;93300.93;1738674;80;21049;-87
2021/09/16 07:36:57;;;;;;;9.18;7.85;;;;;;;14.36;92.73;93296.88;1717161;80;21112;-92
2021/09/16 07:39:23;;;;;;;9.93;8.78;;;;;;;14.54;92.86;93297.92;1753086;79;21523;-91
2021/09/16 07:41:51;;;;;;;9.88;8.80;;;;;;;14.76;92.15;93291.40;1729582;79;21071;-91
2021/09/16 07:44:18;;;;;;;9.40;8.48;;;;;;;14.97;91.18;93290.94;1721041;79;20959;-91
2021/09/16 07:46:44;;;;;;;9.20;8.38;;;;;;;15.16;90.26;93292.66;1731001;79;21263;-88
2021/09/16 07:49:11;;;;;;;12.03;8.50;;;;;;;15.30;89.70;93292.30;1750179;79;21121;-90
2021/09/16 07:51:37;;;;;;;9.63;8.63;;;;;;;15.43;88.70;93294.55;1730369;79;21114;-91
2021/09/16 07:54:04;;;;;;;8.65;7.85;;;;;;;15.56;88.50;93293.23;1760491;79;21676;-89
2021/09/16 07:56:31;;;;;;;9.20;8.28;;;;;;;15.70;88.42;93291.55;1740672;80;21109;-93
2021/09/16 07:58:58;;;;;;;8.80;8.00;;;;;;;15.85;87.28;93298.05;1720584;81;21079;-91
2021/09/16 08:01:25;;;;;;;10.32;8.45;;;;;;;15.99;87.15;93296.30;1750487;80;20990;-89
2021/09/16 08:03:51;;;;;;;9.60;8.70;;;;;;;16.15;86.48;93287.25;1745415;79;22194;-91
2021/09/16 08:06:18;;;;;;;9.28;8.05;;;;;;;16.30;85.90;93291.14;1727179;80;21099;-89
2021/09/16 08:08:45;;;;;;;9.58;7.50;;;;;;;16.47;84.82;93290.46;1759654;79;21034;-89
2021/09/16 08:11:12;;;;;;;9.03;8.08;;;;;;;16.61;84.58;93287.92;1755758;79;21061;-92
2021/09/16 08:13:40;;;;;;;9.30;7.30;;;;;;;16.79;84.65;93290.18;1741817;79;21051;-88
2021/09/16 08:16:07;;;;;;;10.85;8.30;;;;;;;16.96;83.50;93283.37;1729371;81;21156;-87
2021/09/16 08:18:33;;;;;;;11.75;8.40;;;;;;;17.17;84.30;93286.84;1722078;81;21502;-89
2021/09/16 08:21:01;;;;;;;8.35;7.53;;;;;;;17.39;83.79;93280.06;1727073;81;21370;-91
2021/09/16 08:23:29;;;;;;;8.25;7.42;;;;;;;17.61;81.06;93282.12;1748355;78;21018;-90
2021/09/16 08:25:55;;;;;;;9.03;7.50;;;;;;;17.79;80.95;93279.59;1791932;77;21061;-91
2021/09/16 08:28:22;;;;;;;8.58;7.33;;;;;;;17.99;78.28;93279.30;1783116;78;21110;-91
2021/09/16 08:30:49;;;;;;;7.80;7.10;;;;;;;18.16;76.95;93277.13;1796088;77;21125;-89
2021/09/16 08:33:16;;;;;;;8.48;7.25;;;;;;;18.32;76.37;93285.83;1773868;77;21087;-90
2021/09/16 08:35:44;;;;;;;7.85;7.05;;;;;;;18.42;74.13;93284.66;1753967;79;21033;-88
2021/09/16 08:38:14;;;;;;;8.20;7.40;;;;;;;18.50;72.95;93281.80;1741547;80;21076;-90
2021/09/16 08:40:42;;;;;;;10.20;7.45;;;;;;;18.57;73.83;93274.66;1743080;78;21116;-92
2021/09/16 08:43:09;;;;;;;7.62;6.92;;;;;;;18.66;74.31;93270.61;1749908;78;21041;-89
2021/09/16 08:45:36;;;;;;;9.58;7.45;;;;;;;18.78;73.65;93271.00;1752762;80;21048;-90
2021/09/16 08:48:05;;;;;;;7.53;6.60;;;;;;;18.85;72.43;93268.75;1745253;78;21119;-89
2021/09/16 08:50:34;;;;;;;8.13;6.78;;;;;;;18.92;72.65;93265.72;1744821;79;21152;-88
2021/09/16 08:53:07;;;;;;;10.28;7.58;;;;;;;19.03;73.12;93259.02;1755705;77;20994;-89
2021/09/16 08:55:31;;;;;;;9.38;6.20;;;;;;;19.14;73.69;93264.30;1824460;76;21004;-88
2021/09/16 08:58:02;;;;;;;7.80;7.00;;;;;;;19.26;72.79;93254.99;1738652;79;21020;-88
2021/09/16 09:00:30;;;;;;;9.75;6.80;;;;;;;19.39;72.65;93254.25;1772699;76;21047;-88
2021/09/16 09:02:57;;;;;;;7.35;6.60;;;;;;;19.53;72.38;93257.05;1826811;76;21005;-88
2021/09/16 09:05:23;;;;;;;7.20;6.50;;;;;;;19.64;72.24;93249.90;1795328;75;21097;-89
2021/09/16 09:07:53;;;;;;;7.72;6.83;;;;;;;19.76;71.92;93245.47;1751884;80;21130;-91
2021/09/16 09:10:45;;;;;;;7.28;6.58;;;;;;;19.91;70.61;93246.26;1796045;78;21344;-90
2021/09/16 09:13:31;;;;;;;6.95;6.17;;;;;;;20.03;71.41;93235.67;1780321;78;21142;-90
2021/09/16 09:16:04;;;;;;;6.60;6.08;;;;;;;20.16;70.41;93238.27;1780454;79;21036;-89
2021/09/16 09:18:48;;;;;;;7.28;6.33;;;;;;;20.30;68.21;93226.61;1795175;77;21084;-94
2021/09/16 09:21:16;;;;;;;7.22;6.37;;;;;;;20.41;68.10;93227.52;1787629;77;21014;-91
2021/09/16 09:23:54;;;;;;;6.60;6.00;;;;;;;20.51;65.88;93230.45;1786786;78;21071;-92
2021/09/16 09:26:34;;;;;;;7.08;5.70;;;;;;;20.56;65.03;93224.30;1814900;77;21059;-90
2021/09/16 09:29:16;;;;;;;6.60;6.00;;;;;;;20.61;63.03;93229.19;1776454;78;21025;-91
2021/09/16 09:34:33;;;;;;;6.85;5.87;;;;;;;20.71;61.42;93219.66;1730146;80;21061;-94
2021/09/16 09:37:10;;;;;;;;;;;;;;;20.76;61.46;93224.56;1724836;80;21598;-90
2021/09/16 09:39:37;;;;;;;6.28;5.50;;;;;;;20.80;62.51;93222.41;1748481;79;20212;-89
2021/09/16 09:42:26;;;;;;;6.17;5.65;;;;;;;20.85;62.06;93222.38;1784417;77;21055;-87
2021/09/16 09:44:56;;;;;;;7.87;5.92;;;;;;;20.93;60.39;93226.96;1787515;77;21129;-87
2021/09/16 09:47:40;;;;;;;7.08;6.30;;;;;;;21.00;61.10;93226.02;1771225;78;21033;-88
2021/09/16 09:50:21;;;;;;;7.45;6.12;;;;;;;21.07;61.68;93227.69;1824673;76;20982;-88
2021/09/16 09:52:48;;;;;;;7.25;5.62;;;;;;;21.10;59.01;93230.91;1827902;76;20969;-90
2021/09/16 09:55:17;;;;;;;8.40;5.58;;;;;;;21.12;58.71;93227.66;1799488;77;21052;-92
2021/09/16 09:57:44;;;;;;;6.45;5.70;;;;;;;21.14;60.00;93228.73;1793883;77;21174;-87
2021/09/16 10:00:16;;;;;;;6.17;5.05;;;;;;;21.18;59.08;93224.41;1809476;76;21123;-91
2021/09/16 10:02:50;;;;;;;7.60;5.40;;;;;;;21.24;60.21;93219.77;1822717;76;21525;-91
2021/09/16 10:05:38;;;;;;;5.10;4.60;;;;;;;21.27;58.93;93222.36;1804400;77;21109;-92
2021/09/16 10:10:45;;;;;;;10.00;6.20;;;;;;;21.36;58.60;93222.19;1796770;77;21045;-90
2021/09/16 10:13:17;;;;;;;6.30;5.70;;;;;;;21.38;58.97;93214.20;1727603;78;21077;-90
2021/09/16 10:15:44;;;;;;;5.95;5.35;;;;;;;21.38;60.16;93211.44;1745426;79;21082;-92
2021/09/16 10:18:12;;;;;;;6.12;5.53;;;;;;;21.41;60.20;93220.18;1769604;79;21026;-89
2021/09/16 10:20:39;;;;;;;7.05;5.80;;;;;;;21.45;58.83;93217.38;1780585;78;21071;-89
2021/09/16 10:23:08;;;;;;;7.33;5.80;;;;;;;21.51;57.56;93217.48;1775659;79;21131;-92
2021/09/16 10:25:35;;;;;;;6.20;5.60;;;;;;;21.55;58.99;93218.08;1771902;79;21036;-89
2021/09/16 10:28:05;;;;;;;6.60;6.00;;;;;;;21.58;59.34;93211.61;1750937;79;21072;-92
2021/09/16 10:30:43;;;;;;;6.97;6.30;;;;;;;21.61;58.70;93215.44;1763782;78;21049;-90
2021/09/16 10:33:17;;;;;;;8.43;5.97;;;;;;;21.59;57.53;93217.31;1735518;80;21058;-91
2021/09/16 10:35:59;;;;;;;7.78;6.70;;;;;;;21.56;57.99;93216.86;1737018;80;21107;-90
2021/09/16 10:38:47;;;;;;;6.35;5.70;;;;;;;21.58;58.54;93210.98;1751191;79;21065;-90
2021/09/16 10:41:21;;;;;;;6.85;6.20;;;;;;;21.72;57.29;93210.14;1781307;78;21057;-90
2021/09/16 10:44:03;;;;;;;10.48;6.65;;;;;;;21.83;56.41;93216.67;1743520;80;21551;-90
2021/09/16 10:46:47;;;;;;;7.47;6.22;;;;;;;21.85;55.88;93221.72;1765349;79;21076;-92
2021/09/16 10:49:28;;;;;;;7.40;5.70;;;;;;;21.84;55.15;93206.36;1752924;78;21048;-89
2021/09/16 10:52:20;;;;;;;7.95;6.28;;;;;;;21.87;56.43;93205.42;1739772;79;21068;-90
2021/09/16 10:54:56;;;;;;;7.97;5.87;;;;;;;21.95;55.91;93200.29;1765518;77;21119;-91
2021/09/16 10:57:40;;;;;;;7.53;6.10;;;;;;;21.94;56.94;93198.14;1812055;77;21670;-92
2021/09/16 11:00:17;;;;;;;9.55;6.30;;;;;;;21.98;56.83;93191.05;1788674;77;21079;-89
2021/09/16 11:02:52;;;;;;;6.80;6.10;;;;;;;22.08;55.76;93185.58;1817464;77;22472;-90
2021/09/16 11:05:20;;;;;;;7.10;6.47;;;;;;;22.17;55.32;93176.45;1766529;79;21066;-93
2021/09/16 11:07:55;;;;;;;6.85;6.22;;;;;;;22.25;57.31;93182.52;1731790;80;21063;-91
2021/09/16 11:10:32;;;;;;;7.78;5.72;;;;;;;22.31;55.87;93179.86;1766474;79;21101;-87
2021/09/16 11:13:05;;;;;;;16.40;5.95;;;;;;;22.35;55.97;93181.82;1785759;78;21050;-92
2021/09/16 11:15:36;;;;;;;7.60;5.62;;;;;;;22.35;55.46;93183.83;1773744;77;21114;-89
2021/09/16 11:18:13;;;;;;;12.75;5.72;;;;;;;22.37;55.53;93184.11;1746388;79;21097;-93
2021/09/16 11:20:42;;;;;;;7.25;5.80;;;;;;;22.42;56.33;93182.07;1728157;79;21053;-90
2021/09/16 11:23:10;;;;;;;6.60;6.00;;;;;;;22.46;54.49;93186.17;1787194;78;21638;-92
2021/09/16 11:25:39;;;;;;;9.88;6.92;;;;;;;22.48;54.94;93178.77;1755790;77;21060;-90
2021/09/16 11:28:06;;;;;;;7.80;7.10;;;;;;;22.50;54.69;93178.44;1796035;77;21729;-90
2021/09/16 11:30:34;;;;;;;8.23;6.45;;;;;;;22.50;54.90;93174.28;1796875;77;21056;-89
2021/09/16 11:33:05;;;;;;;9.65;6.92;;;;;;;22.49;55.06;93164.45;1758704;77;21107;-90
2021/09/16 11:35:32;;;;;;;12.10;8.43;;;;;;;22.46;54.40;93164.02;1823450;77;20935;-89
2021/09/16 11:37:58;;;;;;;7.25;6.30;;;;;;;22.45;54.90;93158.31;1786305;77;21077;-91
2021/09/16 11:40:29;;;;;;;8.98;5.87;;;;;;;22.49;54.34;93164.45;1786277;78;21045;-88
2021/09/16 11:42:59;;;;;;;5.85;5.42;;;;;;;22.57;53.38;93156.52;1772392;78;21053;-87
2021/09/16 11:45:28;;;;;;;7.40;5.50;;;;;;;22.61;52.44;93154.94;1781372;77;21027;-94